New Millport, PA (16861)

8:33 AM EDT on March 24, 2017 (GMT -0400)
Twinoaks | | Change Station
Active Advisory: Winter Weather Advisory

Elev 1493 ft 40.99 °N, 78.53 °W | Updated 22 seconds ago

Rain
Rain
32.4 °F
Feels Like 32 °F
N
0.0
Wind Variable Wind from SE

Today
High -- | Low -- °F
--% Chance of Precip.
Yesterday
High -- | Low -- °F
Precip. -- in
Pressure 30.23 in
Visibility 4.0 miles
Clouds Few 1600 ft
Overcast 3800 ft
Windchill 32 °F
Dew Point 29 °F
Humidity 90%
Rainfall 0.07 in
Snow Depth Not available.
7:10 AM 7:30 PM
Waning Crescent, 15% visible
METAR KDUJ 241153Z AUTO 21005KT 4SM -RA BR FEW016 OVC038 04/02 A3019 RMK AO2 RAB52 SLP235 P0000 60004 70004 T00390017 10039 20011 56003 $
Pressure 30.23 in
Visibility 4.0 miles
Clouds Few 1600 ft
Overcast 3800 ft
Windchill 32 °F
Dew Point 29 °F
Humidity 90%
Rainfall 0.07 in
Snow Depth Not available.
7:10 AM 7:30 PM
Waning Crescent, 15% visible
METAR KDUJ 241153Z AUTO 21005KT 4SM -RA BR FEW016 OVC038 04/02 A3019 RMK AO2 RAB52 SLP235 P0000 60004 70004 T00390017 10039 20011 56003 $

Get Your Daily Forecast Email!

Thanks for signing up!

Be on the lookout for a verification email in your inbox.

You'll start receiving severe weather alerts in your inbox..

×

10-Day Weather Forecast

Almanac

Astronomy

Mar. 24, 2017 Rise Set
Actual Time
Civil Twilight
Nautical Twilight
Astronomical Twilight
Moon
Length of Visible Light
Length of Day
Tomorrow will be .
, % of the Moon is Illuminated

Today's Extremes

State Highs State Lows

Community

WunderPhotos

Upload Photos

1,962,540 photos uploaded!

WunderBlog® & News

Nearby

Air Quality

  Air Quality AQ Index Pollutant
Not available.

Snow Depth

Station Depth Elevation

Earthquake Activity

City Distance Mag. Time & Date
Minimum magnitude displayed is 2.5.

Earthquake Activity

City Distance Mag. Time & Date
Minimum magnitude displayed is 2.5.

Coastal Water Temperatures

Place Temperature

Stations

Nearby Weather Stations

Station Location Temp. Windchill Dew Point Humidity Wind Precip. Elev Updated Type
                   

Watches & Warnings

Winter Weather Advisory
Issued: 5:40 AM EDT Mar. 24, 2017 – National Weather Service

... Winter Weather Advisory remains in effect until 11 am EDT this
morning...

* timing... during the mid to late morning hours today.

* Hazards... patchy freezing rain with some sleet also possible.

* Accumulations... around a trace of ice.

* Temperatures... in the lower 30s.

* Impacts... patchy light icing may create slippery spots on colder
elevated surfaces, along with untreated roads, bridges and
sidewalks.

Precautionary/preparedness actions...

The Pennsylvania Department of Transportation reminds motorists
to adjust speeds based on driving conditions and to take it slow
in ice and snow.



Bl/MS